sensor_id;sensor_type;location;lat;lon;timestamp;P1;durP1;ratioP1;P2;durP2;ratioP2
1296;SDS011;641;48.492;9.184;2023-05-10T00:01:54;5.80;;;0.70;;
1296;SDS011;641;48.492;9.184;2023-05-10T00:04:20;5.50;;;0.50;;
1296;SDS011;641;48.492;9.184;2023-05-10T00:06:46;6.00;;;0.90;;
1296;SDS011;641;48.492;9.184;2023-05-10T00:09:12;6.70;;;0.90;;
1296;SDS011;641;48.492;9.184;2023-05-10T00:11:37;6.63;;;0.90;;
1296;SDS011;641;48.492;9.184;2023-05-10T00:14:03;12.23;;;0.90;;
1296;SDS011;641;48.492;9.184;2023-05-10T00:16:28;5.57;;;0.50;;
1296;SDS011;641;48.492;9.184;2023-05-10T00:18:54;5.77;;;0.60;;
1296;SDS011;641;48.492;9.184;2023-05-10T00:21:20;7.47;;;1.00;;
1296;SDS011;641;48.492;9.184;2023-05-10T00:23:45;6.10;;;0.70;;
1296;SDS011;641;48.492;9.184;2023-05-10T00:26:11;6.60;;;0.67;;
1296;SDS011;641;48.492;9.184;2023-05-10T00:28:36;6.10;;;0.70;;
1296;SDS011;641;48.492;9.184;2023-05-10T00:31:02;7.20;;;0.60;;
1296;SDS011;641;48.492;9.184;2023-05-10T00:33:27;5.57;;;0.53;;
1296;SDS011;641;48.492;9.184;2023-05-10T00:35:53;7.93;;;0.87;;
1296;SDS011;641;48.492;9.184;2023-05-10T00:38:19;6.17;;;0.60;;
1296;SDS011;641;48.492;9.184;2023-05-10T00:40:44;5.87;;;0.63;;
1296;SDS011;641;48.492;9.184;2023-05-10T00:43:10;6.10;;;0.73;;
1296;SDS011;641;48.492;9.184;2023-05-10T00:45:35;5.90;;;0.60;;
1296;SDS011;641;48.492;9.184;2023-05-10T00:48:02;5.80;;;0.50;;
1296;SDS011;641;48.492;9.184;2023-05-10T00:50:28;6.00;;;0.70;;
1296;SDS011;641;48.492;9.184;2023-05-10T00:52:55;5.90;;;0.70;;
1296;SDS011;641;48.492;9.184;2023-05-10T00:55:21;6.00;;;0.60;;
1296;SDS011;641;48.492;9.184;2023-05-10T00:57:47;6.00;;;0.60;;
1296;SDS011;641;48.492;9.184;2023-05-10T01:00:13;6.23;;;0.80;;
1296;SDS011;641;48.492;9.184;2023-05-10T01:02:43;5.60;;;0.60;;
1296;SDS011;641;48.492;9.184;2023-05-10T01:05:12;9.87;;;0.70;;
1296;SDS011;641;48.492;9.184;2023-05-10T01:07:38;6.87;;;0.67;;
1296;SDS011;641;48.492;9.184;2023-05-10T01:10:05;5.47;;;0.40;;
1296;SDS011;641;48.492;9.184;2023-05-10T01:12:31;5.50;;;0.37;;
1296;SDS011;641;48.492;9.184;2023-05-10T01:14:57;5.50;;;0.50;;
1296;SDS011;641;48.492;9.184;2023-05-10T01:17:23;6.47;;;0.60;;
1296;SDS011;641;48.492;9.184;2023-05-10T01:19:50;6.73;;;0.50;;
1296;SDS011;641;48.492;9.184;2023-05-10T01:27:54;5.47;;;0.43;;
1296;SDS011;641;48.492;9.184;2023-05-10T01:33:52;5.47;;;0.37;;
1296;SDS011;641;48.492;9.184;2023-05-10T01:36:30;6.00;;;0.40;;
1296;SDS011;641;48.492;9.184;2023-05-10T01:46:36;6.33;;;0.43;;
1296;SDS011;641;48.492;9.184;2023-05-10T01:49:03;5.70;;;0.40;;
1296;SDS011;641;48.492;9.184;2023-05-10T01:51:45;5.33;;;0.40;;
1296;SDS011;641;48.492;9.184;2023-05-10T01:54:14;5.40;;;0.40;;
1296;SDS011;641;48.492;9.184;2023-05-10T01:56:42;9.97;;;0.60;;
1296;SDS011;641;48.492;9.184;2023-05-10T01:59:11;5.80;;;0.60;;
1296;SDS011;641;48.492;9.184;2023-05-10T02:01:40;5.53;;;0.50;;
1296;SDS011;641;48.492;9.184;2023-05-10T02:04:07;5.70;;;0.60;;
1296;SDS011;641;48.492;9.184;2023-05-10T02:06:34;5.50;;;0.50;;
1296;SDS011;641;48.492;9.184;2023-05-10T02:09:02;5.80;;;0.50;;
1296;SDS011;641;48.492;9.184;2023-05-10T02:11:28;5.80;;;0.67;;
1296;SDS011;641;48.492;9.184;2023-05-10T02:13:55;5.63;;;0.60;;
1296;SDS011;641;48.492;9.184;2023-05-10T02:16:23;5.90;;;0.80;;
1296;SDS011;641;48.492;9.184;2023-05-10T02:18:51;5.57;;;0.50;;
1296;SDS011;641;48.492;9.184;2023-05-10T02:21:17;5.50;;;0.50;;
1296;SDS011;641;48.492;9.184;2023-05-10T02:23:45;5.93;;;0.53;;
1296;SDS011;641;48.492;9.184;2023-05-10T02:26:13;5.70;;;0.47;;
1296;SDS011;641;48.492;9.184;2023-05-10T02:28:40;5.67;;;0.60;;
1296;SDS011;641;48.492;9.184;2023-05-10T02:31:08;5.57;;;0.60;;
1296;SDS011;641;48.492;9.184;2023-05-10T02:33:35;6.20;;;0.60;;
1296;SDS011;641;48.492;9.184;2023-05-10T02:36:04;5.80;;;0.70;;
1296;SDS011;641;48.492;9.184;2023-05-10T02:38:32;5.60;;;0.67;;
1296;SDS011;641;48.492;9.184;2023-05-10T02:40:59;6.00;;;0.73;;
1296;SDS011;641;48.492;9.184;2023-05-10T02:43:24;5.47;;;0.47;;
1296;SDS011;641;48.492;9.184;2023-05-10T02:45:51;5.70;;;0.50;;
1296;SDS011;641;48.492;9.184;2023-05-10T02:48:16;7.60;;;0.53;;
1296;SDS011;641;48.492;9.184;2023-05-10T02:50:45;6.30;;;0.80;;
1296;SDS011;641;48.492;9.184;2023-05-10T02:53:18;7.13;;;0.90;;
1296;SDS011;641;48.492;9.184;2023-05-10T02:55:49;6.77;;;0.50;;
1296;SDS011;641;48.492;9.184;2023-05-10T02:58:16;6.00;;;0.60;;
1296;SDS011;641;48.492;9.184;2023-05-10T03:00:44;6.30;;;0.70;;
1296;SDS011;641;48.492;9.184;2023-05-10T03:03:10;5.70;;;0.60;;
1296;SDS011;641;48.492;9.184;2023-05-10T03:05:36;6.70;;;0.73;;
1296;SDS011;641;48.492;9.184;2023-05-10T03:08:01;6.20;;;0.80;;
1296;SDS011;641;48.492;9.184;2023-05-10T03:10:29;6.57;;;0.80;;
1296;SDS011;641;48.492;9.184;2023-05-10T03:18:01;7.20;;;1.00;;
1296;SDS011;641;48.492;9.184;2023-05-10T03:20:54;5.93;;;0.93;;
1296;SDS011;641;48.492;9.184;2023-05-10T03:23:26;5.70;;;0.63;;
1296;SDS011;641;48.492;9.184;2023-05-10T03:25:54;7.50;;;1.10;;
1296;SDS011;641;48.492;9.184;2023-05-10T03:28:21;5.70;;;0.70;;
1296;SDS011;641;48.492;9.184;2023-05-10T03:30:49;7.30;;;0.80;;
1296;SDS011;641;48.492;9.184;2023-05-10T03:33:17;5.97;;;0.83;;
1296;SDS011;641;48.492;9.184;2023-05-10T03:35:42;6.23;;;0.87;;
1296;SDS011;641;48.492;9.184;2023-05-10T03:38:10;7.13;;;1.57;;
1296;SDS011;641;48.492;9.184;2023-05-10T03:40:36;6.70;;;0.70;;
1296;SDS011;641;48.492;9.184;2023-05-10T03:43:02;5.80;;;0.80;;
1296;SDS011;641;48.492;9.184;2023-05-10T03:45:28;6.40;;;1.03;;
1296;SDS011;641;48.492;9.184;2023-05-10T03:47:53;7.90;;;1.73;;
1296;SDS011;641;48.492;9.184;2023-05-10T03:50:19;6.00;;;0.97;;
1296;SDS011;641;48.492;9.184;2023-05-10T03:52:45;6.80;;;0.93;;
1296;SDS011;641;48.492;9.184;2023-05-10T03:55:11;7.80;;;0.80;;
1296;SDS011;641;48.492;9.184;2023-05-10T03:57:37;8.10;;;0.80;;
1296;SDS011;641;48.492;9.184;2023-05-10T04:00:03;6.30;;;1.00;;
1296;SDS011;641;48.492;9.184;2023-05-10T04:02:29;5.90;;;0.90;;
1296;SDS011;641;48.492;9.184;2023-05-10T04:04:55;8.13;;;1.10;;
1296;SDS011;641;48.492;9.184;2023-05-10T04:07:21;6.43;;;0.97;;
1296;SDS011;641;48.492;9.184;2023-05-10T04:09:46;6.63;;;0.97;;
1296;SDS011;641;48.492;9.184;2023-05-10T04:12:12;6.53;;;0.93;;
1296;SDS011;641;48.492;9.184;2023-05-10T04:14:38;7.20;;;0.70;;
1296;SDS011;641;48.492;9.184;2023-05-10T04:17:03;5.93;;;0.83;;
1296;SDS011;641;48.492;9.184;2023-05-10T04:19:32;7.27;;;1.10;;
1296;SDS011;641;48.492;9.184;2023-05-10T04:21:58;6.87;;;1.00;;
1296;SDS011;641;48.492;9.184;2023-05-10T04:24:24;7.97;;;1.13;;
1296;SDS011;641;48.492;9.184;2023-05-10T04:26:50;5.90;;;1.03;;
1296;SDS011;641;48.492;9.184;2023-05-10T04:29:15;6.10;;;0.90;;
1296;SDS011;641;48.492;9.184;2023-05-10T04:31:41;7.30;;;0.80;;
1296;SDS011;641;48.492;9.184;2023-05-10T04:34:07;8.53;;;0.93;;
1296;SDS011;641;48.492;9.184;2023-05-10T04:36:32;7.17;;;0.90;;
1296;SDS011;641;48.492;9.184;2023-05-10T04:39:00;5.50;;;0.50;;
1296;SDS011;641;48.492;9.184;2023-05-10T04:41:27;5.90;;;0.80;;
1296;SDS011;641;48.492;9.184;2023-05-10T04:43:53;8.13;;;0.90;;
1296;SDS011;641;48.492;9.184;2023-05-10T04:46:19;7.60;;;0.80;;
1296;SDS011;641;48.492;9.184;2023-05-10T04:48:45;6.00;;;0.90;;
1296;SDS011;641;48.492;9.184;2023-05-10T04:51:10;7.03;;;0.90;;
1296;SDS011;641;48.492;9.184;2023-05-10T04:53:36;5.83;;;0.87;;
1296;SDS011;641;48.492;9.184;2023-05-10T04:56:02;5.87;;;0.90;;
1296;SDS011;641;48.492;9.184;2023-05-10T04:58:27;6.93;;;1.03;;
1296;SDS011;641;48.492;9.184;2023-05-10T05:00:53;5.80;;;0.93;;
1296;SDS011;641;48.492;9.184;2023-05-10T05:03:18;14.57;;;1.37;;
1296;SDS011;641;48.492;9.184;2023-05-10T05:05:44;5.93;;;1.10;;
1296;SDS011;641;48.492;9.184;2023-05-10T05:08:09;6.93;;;1.27;;
1296;SDS011;641;48.492;9.184;2023-05-10T05:10:35;7.10;;;0.77;;
1296;SDS011;641;48.492;9.184;2023-05-10T05:13:01;5.60;;;0.70;;
1296;SDS011;641;48.492;9.184;2023-05-10T05:15:26;10.60;;;1.63;;
1296;SDS011;641;48.492;9.184;2023-05-10T05:17:52;6.03;;;1.07;;
1296;SDS011;641;48.492;9.184;2023-05-10T05:20:18;6.00;;;1.10;;
1296;SDS011;641;48.492;9.184;2023-05-10T05:22:43;8.60;;;1.50;;
1296;SDS011;641;48.492;9.184;2023-05-10T05:25:09;7.90;;;1.10;;
1296;SDS011;641;48.492;9.184;2023-05-10T05:27:36;6.77;;;1.10;;
1296;SDS011;641;48.492;9.184;2023-05-10T05:30:02;6.10;;;1.07;;
1296;SDS011;641;48.492;9.184;2023-05-10T05:32:29;5.70;;;0.80;;
1296;SDS011;641;48.492;9.184;2023-05-10T05:34:55;5.70;;;0.80;;
1296;SDS011;641;48.492;9.184;2023-05-10T05:37:20;6.53;;;1.00;;
1296;SDS011;641;48.492;9.184;2023-05-10T05:39:47;5.90;;;0.67;;
1296;SDS011;641;48.492;9.184;2023-05-10T05:42:13;8.97;;;2.33;;
1296;SDS011;641;48.492;9.184;2023-05-10T05:44:39;9.33;;;1.33;;
1296;SDS011;641;48.492;9.184;2023-05-10T05:47:05;6.10;;;1.20;;
1296;SDS011;641;48.492;9.184;2023-05-10T05:49:31;6.30;;;1.20;;
1296;SDS011;641;48.492;9.184;2023-05-10T05:52:00;8.53;;;1.87;;
1296;SDS011;641;48.492;9.184;2023-05-10T05:54:27;7.00;;;1.00;;
1296;SDS011;641;48.492;9.184;2023-05-10T05:56:59;6.80;;;1.50;;
1296;SDS011;641;48.492;9.184;2023-05-10T05:59:25;5.90;;;1.20;;
1296;SDS011;641;48.492;9.184;2023-05-10T06:02:10;8.03;;;1.30;;
1296;SDS011;641;48.492;9.184;2023-05-10T06:12:25;5.83;;;1.00;;
1296;SDS011;641;48.492;9.184;2023-05-10T06:22:50;8.87;;;1.50;;
1296;SDS011;641;48.492;9.184;2023-05-10T06:25:16;6.00;;;1.00;;
1296;SDS011;641;48.492;9.184;2023-05-10T06:27:43;6.20;;;1.10;;
1296;SDS011;641;48.492;9.184;2023-05-10T06:30:20;6.47;;;1.30;;
1296;SDS011;641;48.492;9.184;2023-05-10T06:32:47;5.97;;;0.93;;
1296;SDS011;641;48.492;9.184;2023-05-10T06:35:14;6.20;;;1.13;;
1296;SDS011;641;48.492;9.184;2023-05-10T06:37:46;6.53;;;1.37;;
1296;SDS011;641;48.492;9.184;2023-05-10T06:40:49;6.00;;;0.80;;
1296;SDS011;641;48.492;9.184;2023-05-10T06:43:21;6.10;;;1.07;;
1296;SDS011;641;48.492;9.184;2023-05-10T06:45:53;6.67;;;1.50;;
1296;SDS011;641;48.492;9.184;2023-05-10T06:49:22;9.20;;;2.13;;
1296;SDS011;641;48.492;9.184;2023-05-10T06:55:30;6.80;;;0.90;;
1296;SDS011;641;48.492;9.184;2023-05-10T06:58:03;8.83;;;1.33;;
1296;SDS011;641;48.492;9.184;2023-05-10T07:01:09;10.83;;;2.17;;
1296;SDS011;641;48.492;9.184;2023-05-10T07:03:36;6.00;;;0.90;;
1296;SDS011;641;48.492;9.184;2023-05-10T07:06:08;6.70;;;1.03;;
1296;SDS011;641;48.492;9.184;2023-05-10T07:12:17;22.57;;;3.83;;
1296;SDS011;641;48.492;9.184;2023-05-10T07:14:44;6.20;;;1.20;;
1296;SDS011;641;48.492;9.184;2023-05-10T07:17:51;8.03;;;0.90;;
1296;SDS011;641;48.492;9.184;2023-05-10T07:20:46;5.80;;;0.90;;
1296;SDS011;641;48.492;9.184;2023-05-10T07:23:19;5.67;;;0.63;;
1296;SDS011;641;48.492;9.184;2023-05-10T07:25:52;6.03;;;0.83;;
1296;SDS011;641;48.492;9.184;2023-05-10T07:28:18;6.57;;;1.10;;
1296;SDS011;641;48.492;9.184;2023-05-10T07:30:56;6.93;;;1.10;;
1296;SDS011;641;48.492;9.184;2023-05-10T07:36:58;5.90;;;0.90;;
1296;SDS011;641;48.492;9.184;2023-05-10T07:39:29;7.17;;;1.20;;
1296;SDS011;641;48.492;9.184;2023-05-10T07:41:56;7.30;;;0.93;;
1296;SDS011;641;48.492;9.184;2023-05-10T07:44:22;6.87;;;1.07;;
1296;SDS011;641;48.492;9.184;2023-05-10T07:47:08;5.90;;;0.87;;
1296;SDS011;641;48.492;9.184;2023-05-10T07:49:57;6.10;;;1.10;;
1296;SDS011;641;48.492;9.184;2023-05-10T07:52:23;6.90;;;1.03;;
1296;SDS011;641;48.492;9.184;2023-05-10T07:54:52;5.80;;;0.93;;
1296;SDS011;641;48.492;9.184;2023-05-10T07:57:21;6.10;;;1.00;;
1296;SDS011;641;48.492;9.184;2023-05-10T07:59:53;7.47;;;1.67;;
1296;SDS011;641;48.492;9.184;2023-05-10T08:02:21;6.40;;;0.97;;
1296;SDS011;641;48.492;9.184;2023-05-10T08:04:52;5.90;;;0.90;;
1296;SDS011;641;48.492;9.184;2023-05-10T08:07:25;6.20;;;0.90;;
1296;SDS011;641;48.492;9.184;2023-05-10T08:09:51;6.13;;;0.87;;
1296;SDS011;641;48.492;9.184;2023-05-10T08:12:18;7.50;;;1.00;;
1296;SDS011;641;48.492;9.184;2023-05-10T08:14:43;7.83;;;1.00;;
1296;SDS011;641;48.492;9.184;2023-05-10T08:20:13;6.17;;;0.83;;
1296;SDS011;641;48.492;9.184;2023-05-10T08:26:04;6.67;;;0.80;;
1296;SDS011;641;48.492;9.184;2023-05-10T08:47:08;6.20;;;0.90;;
1296;SDS011;641;48.492;9.184;2023-05-10T11:26:41;6.40;;;0.53;;
1296;SDS011;641;48.492;9.184;2023-05-10T11:33:55;17.90;;;1.47;;
1296;SDS011;641;48.492;9.184;2023-05-10T11:40:37;8.90;;;3.57;;
1296;SDS011;641;48.492;9.184;2023-05-10T11:43:09;8.60;;;0.60;;
1296;SDS011;641;48.492;9.184;2023-05-10T11:45:58;6.53;;;0.50;;
1296;SDS011;641;48.492;9.184;2023-05-10T11:52:07;6.20;;;1.00;;
1296;SDS011;641;48.492;9.184;2023-05-10T11:58:53;6.20;;;0.83;;
1296;SDS011;641;48.492;9.184;2023-05-10T12:11:30;6.20;;;0.70;;
1296;SDS011;641;48.492;9.184;2023-05-10T12:18:22;6.50;;;0.93;;
1296;SDS011;641;48.492;9.184;2023-05-10T12:31:55;7.17;;;1.20;;
1296;SDS011;641;48.492;9.184;2023-05-10T12:37:53;6.60;;;1.00;;
1296;SDS011;641;48.492;9.184;2023-05-10T12:43:40;8.50;;;1.07;;
1296;SDS011;641;48.492;9.184;2023-05-10T12:46:10;5.90;;;0.70;;
1296;SDS011;641;48.492;9.184;2023-05-10T12:48:44;6.47;;;0.80;;
1296;SDS011;641;48.492;9.184;2023-05-10T12:51:14;6.77;;;1.20;;
1296;SDS011;641;48.492;9.184;2023-05-10T12:53:44;6.40;;;1.00;;
1296;SDS011;641;48.492;9.184;2023-05-10T12:56:14;6.77;;;0.90;;
1296;SDS011;641;48.492;9.184;2023-05-10T12:58:41;6.33;;;0.80;;
1296;SDS011;641;48.492;9.184;2023-05-10T13:01:12;7.63;;;1.57;;
1296;SDS011;641;48.492;9.184;2023-05-10T13:03:39;6.10;;;0.70;;
1296;SDS011;641;48.492;9.184;2023-05-10T13:06:04;6.93;;;1.13;;
1296;SDS011;641;48.492;9.184;2023-05-10T13:08:31;6.90;;;1.20;;
1296;SDS011;641;48.492;9.184;2023-05-10T13:10:58;7.90;;;1.10;;
1296;SDS011;641;48.492;9.184;2023-05-10T13:13:28;6.93;;;1.00;;
1296;SDS011;641;48.492;9.184;2023-05-10T13:15:55;6.50;;;1.00;;
1296;SDS011;641;48.492;9.184;2023-05-10T13:18:20;6.93;;;1.00;;
1296;SDS011;641;48.492;9.184;2023-05-10T13:20:46;6.70;;;0.97;;
1296;SDS011;641;48.492;9.184;2023-05-10T13:23:14;9.23;;;1.20;;
1296;SDS011;641;48.492;9.184;2023-05-10T13:25:40;8.40;;;1.10;;
1296;SDS011;641;48.492;9.184;2023-05-10T13:28:06;6.40;;;0.97;;
1296;SDS011;641;48.492;9.184;2023-05-10T13:30:33;8.13;;;1.40;;
1296;SDS011;641;48.492;9.184;2023-05-10T13:32:59;7.77;;;1.13;;
1296;SDS011;641;48.492;9.184;2023-05-10T13:35:24;7.23;;;0.90;;
1296;SDS011;641;48.492;9.184;2023-05-10T13:37:50;6.93;;;1.03;;
1296;SDS011;641;48.492;9.184;2023-05-10T13:40:18;6.67;;;0.70;;
1296;SDS011;641;48.492;9.184;2023-05-10T13:42:44;8.37;;;1.10;;
1296;SDS011;641;48.492;9.184;2023-05-10T13:45:10;6.87;;;0.90;;
1296;SDS011;641;48.492;9.184;2023-05-10T13:47:37;10.50;;;1.90;;
1296;SDS011;641;48.492;9.184;2023-05-10T13:50:03;5.80;;;0.80;;
1296;SDS011;641;48.492;9.184;2023-05-10T13:52:30;6.00;;;0.90;;
1296;SDS011;641;48.492;9.184;2023-05-10T13:54:57;6.20;;;0.93;;
1296;SDS011;641;48.492;9.184;2023-05-10T13:57:24;6.50;;;1.00;;
1296;SDS011;641;48.492;9.184;2023-05-10T13:59:51;8.73;;;1.17;;
1296;SDS011;641;48.492;9.184;2023-05-10T14:02:31;7.93;;;1.10;;
1296;SDS011;641;48.492;9.184;2023-05-10T14:04:58;9.40;;;1.33;;
1296;SDS011;641;48.492;9.184;2023-05-10T14:07:26;6.53;;;1.00;;
1296;SDS011;641;48.492;9.184;2023-05-10T14:10:29;8.10;;;1.00;;
1296;SDS011;641;48.492;9.184;2023-05-10T14:16:59;6.10;;;0.80;;
1296;SDS011;641;48.492;9.184;2023-05-10T14:19:27;8.00;;;1.33;;
1296;SDS011;641;48.492;9.184;2023-05-10T14:21:55;8.53;;;1.37;;
1296;SDS011;641;48.492;9.184;2023-05-10T14:24:24;7.47;;;0.97;;
1296;SDS011;641;48.492;9.184;2023-05-10T14:26:51;10.63;;;1.10;;
1296;SDS011;641;48.492;9.184;2023-05-10T14:29:21;6.97;;;0.90;;
1296;SDS011;641;48.492;9.184;2023-05-10T14:31:55;8.00;;;1.20;;
1296;SDS011;641;48.492;9.184;2023-05-10T14:34:21;6.13;;;1.03;;
1296;SDS011;641;48.492;9.184;2023-05-10T14:36:48;14.53;;;1.33;;
1296;SDS011;641;48.492;9.184;2023-05-10T14:39:15;7.20;;;1.30;;
1296;SDS011;641;48.492;9.184;2023-05-10T14:41:42;6.57;;;1.10;;
1296;SDS011;641;48.492;9.184;2023-05-10T14:44:10;7.57;;;1.00;;
1296;SDS011;641;48.492;9.184;2023-05-10T14:46:38;7.90;;;1.20;;
1296;SDS011;641;48.492;9.184;2023-05-10T14:49:10;6.50;;;1.10;;
1296;SDS011;641;48.492;9.184;2023-05-10T14:51:36;7.47;;;1.10;;
1296;SDS011;641;48.492;9.184;2023-05-10T14:54:02;6.30;;;1.23;;
1296;SDS011;641;48.492;9.184;2023-05-10T14:56:28;7.73;;;1.00;;
1296;SDS011;641;48.492;9.184;2023-05-10T14:58:53;7.10;;;1.13;;
1296;SDS011;641;48.492;9.184;2023-05-10T15:01:23;7.27;;;1.30;;
1296;SDS011;641;48.492;9.184;2023-05-10T15:03:49;7.13;;;0.90;;
1296;SDS011;641;48.492;9.184;2023-05-10T15:06:15;6.20;;;0.90;;
1296;SDS011;641;48.492;9.184;2023-05-10T15:08:47;6.90;;;1.20;;
1296;SDS011;641;48.492;9.184;2023-05-10T15:11:16;6.20;;;0.93;;
1296;SDS011;641;48.492;9.184;2023-05-10T15:13:42;6.87;;;1.10;;
1296;SDS011;641;48.492;9.184;2023-05-10T15:16:09;7.23;;;1.30;;
1296;SDS011;641;48.492;9.184;2023-05-10T15:18:35;7.97;;;1.63;;
1296;SDS011;641;48.492;9.184;2023-05-10T15:21:04;8.27;;;1.20;;
1296;SDS011;641;48.492;9.184;2023-05-10T15:23:30;10.30;;;1.80;;
1296;SDS011;641;48.492;9.184;2023-05-10T15:25:56;6.83;;;1.10;;
1296;SDS011;641;48.492;9.184;2023-05-10T15:28:22;7.90;;;1.33;;
1296;SDS011;641;48.492;9.184;2023-05-10T15:30:50;6.77;;;1.20;;
1296;SDS011;641;48.492;9.184;2023-05-10T15:33:16;11.57;;;1.30;;
1296;SDS011;641;48.492;9.184;2023-05-10T15:35:45;7.00;;;1.20;;
1296;SDS011;641;48.492;9.184;2023-05-10T15:38:11;7.77;;;0.97;;
1296;SDS011;641;48.492;9.184;2023-05-10T15:40:39;9.30;;;1.20;;
1296;SDS011;641;48.492;9.184;2023-05-10T15:43:05;9.70;;;1.20;;
1296;SDS011;641;48.492;9.184;2023-05-10T15:45:37;7.90;;;1.33;;
1296;SDS011;641;48.492;9.184;2023-05-10T15:48:03;7.70;;;1.10;;
1296;SDS011;641;48.492;9.184;2023-05-10T15:50:28;7.30;;;1.30;;
1296;SDS011;641;48.492;9.184;2023-05-10T15:52:55;6.93;;;1.20;;
1296;SDS011;641;48.492;9.184;2023-05-10T15:55:21;6.70;;;1.30;;
1296;SDS011;641;48.492;9.184;2023-05-10T15:57:47;10.63;;;1.20;;
1296;SDS011;641;48.492;9.184;2023-05-10T16:00:13;8.10;;;1.07;;
1296;SDS011;641;48.492;9.184;2023-05-10T16:02:40;8.20;;;1.40;;
1296;SDS011;641;48.492;9.184;2023-05-10T16:05:05;20.73;;;1.50;;
1296;SDS011;641;48.492;9.184;2023-05-10T16:07:33;6.77;;;1.37;;
1296;SDS011;641;48.492;9.184;2023-05-10T16:09:58;6.90;;;1.30;;
1296;SDS011;641;48.492;9.184;2023-05-10T16:12:29;6.43;;;1.20;;
1296;SDS011;641;48.492;9.184;2023-05-10T16:14:55;8.20;;;1.27;;
1296;SDS011;641;48.492;9.184;2023-05-10T16:17:20;6.67;;;0.83;;
1296;SDS011;641;48.492;9.184;2023-05-10T16:19:46;8.47;;;1.43;;
1296;SDS011;641;48.492;9.184;2023-05-10T16:22:12;6.90;;;1.20;;
1296;SDS011;641;48.492;9.184;2023-05-10T16:24:38;9.43;;;1.23;;
1296;SDS011;641;48.492;9.184;2023-05-10T16:27:03;12.10;;;1.00;;
1296;SDS011;641;48.492;9.184;2023-05-10T16:29:29;7.00;;;0.90;;
1296;SDS011;641;48.492;9.184;2023-05-10T16:31:55;9.30;;;1.43;;
1296;SDS011;641;48.492;9.184;2023-05-10T16:34:21;6.60;;;0.90;;
1296;SDS011;641;48.492;9.184;2023-05-10T16:36:48;8.63;;;1.00;;
1296;SDS011;641;48.492;9.184;2023-05-10T16:39:14;6.10;;;0.90;;
1296;SDS011;641;48.492;9.184;2023-05-10T16:41:40;7.03;;;1.10;;
1296;SDS011;641;48.492;9.184;2023-05-10T16:44:06;6.67;;;0.97;;
1296;SDS011;641;48.492;9.184;2023-05-10T16:46:31;7.07;;;0.93;;
1296;SDS011;641;48.492;9.184;2023-05-10T16:48:57;6.90;;;1.03;;
1296;SDS011;641;48.492;9.184;2023-05-10T16:51:24;8.90;;;1.60;;
1296;SDS011;641;48.492;9.184;2023-05-10T16:53:50;10.73;;;1.40;;
1296;SDS011;641;48.492;9.184;2023-05-10T16:56:15;6.93;;;0.90;;
1296;SDS011;641;48.492;9.184;2023-05-10T16:58:46;9.77;;;1.20;;
1296;SDS011;641;48.492;9.184;2023-05-10T17:01:13;7.60;;;1.23;;
1296;SDS011;641;48.492;9.184;2023-05-10T17:03:39;9.67;;;1.50;;
1296;SDS011;641;48.492;9.184;2023-05-10T17:06:05;20.67;;;9.47;;
1296;SDS011;641;48.492;9.184;2023-05-10T17:08:31;9.87;;;4.20;;
1296;SDS011;641;48.492;9.184;2023-05-10T17:10:59;14.00;;;1.80;;
1296;SDS011;641;48.492;9.184;2023-05-10T17:13:27;6.40;;;1.20;;
1296;SDS011;641;48.492;9.184;2023-05-10T17:15:52;6.90;;;0.90;;
1296;SDS011;641;48.492;9.184;2023-05-10T17:18:18;10.30;;;1.90;;
1296;SDS011;641;48.492;9.184;2023-05-10T17:20:43;8.30;;;1.90;;
1296;SDS011;641;48.492;9.184;2023-05-10T17:23:09;10.80;;;2.87;;
1296;SDS011;641;48.492;9.184;2023-05-10T17:25:35;11.83;;;3.50;;
1296;SDS011;641;48.492;9.184;2023-05-10T17:28:01;8.53;;;1.37;;
1296;SDS011;641;48.492;9.184;2023-05-10T17:30:27;11.33;;;2.17;;
1296;SDS011;641;48.492;9.184;2023-05-10T17:32:56;8.40;;;2.23;;
1296;SDS011;641;48.492;9.184;2023-05-10T17:35:24;17.30;;;6.17;;
1296;SDS011;641;48.492;9.184;2023-05-10T17:37:50;11.70;;;2.33;;
1296;SDS011;641;48.492;9.184;2023-05-10T17:40:16;26.07;;;12.90;;
1296;SDS011;641;48.492;9.184;2023-05-10T17:42:42;18.33;;;6.10;;
1296;SDS011;641;48.492;9.184;2023-05-10T17:45:08;11.80;;;3.83;;
1296;SDS011;641;48.492;9.184;2023-05-10T17:47:33;12.10;;;3.10;;
1296;SDS011;641;48.492;9.184;2023-05-10T17:49:59;12.17;;;3.57;;
1296;SDS011;641;48.492;9.184;2023-05-10T17:52:25;10.33;;;1.80;;
1296;SDS011;641;48.492;9.184;2023-05-10T17:54:51;7.90;;;1.03;;
1296;SDS011;641;48.492;9.184;2023-05-10T17:57:17;7.70;;;0.93;;
1296;SDS011;641;48.492;9.184;2023-05-10T19:59:48;8.43;;;1.00;;
1296;SDS011;641;48.492;9.184;2023-05-10T20:02:17;14.77;;;7.10;;
1296;SDS011;641;48.492;9.184;2023-05-10T20:04:43;26.20;;;13.23;;
1296;SDS011;641;48.492;9.184;2023-05-10T20:07:09;52.53;;;29.60;;
1296;SDS011;641;48.492;9.184;2023-05-10T20:09:36;85.73;;;50.40;;
1296;SDS011;641;48.492;9.184;2023-05-10T20:12:02;46.87;;;28.93;;
1296;SDS011;641;48.492;9.184;2023-05-10T20:14:28;19.03;;;9.70;;
1296;SDS011;641;48.492;9.184;2023-05-10T20:16:54;7.03;;;1.80;;
1296;SDS011;641;48.492;9.184;2023-05-10T20:19:20;7.77;;;1.83;;
1296;SDS011;641;48.492;9.184;2023-05-10T20:21:46;6.57;;;1.17;;
1296;SDS011;641;48.492;9.184;2023-05-10T20:24:12;9.40;;;0.90;;
1296;SDS011;641;48.492;9.184;2023-05-10T20:26:39;6.10;;;1.03;;
1296;SDS011;641;48.492;9.184;2023-05-10T20:29:05;8.40;;;1.30;;
1296;SDS011;641;48.492;9.184;2023-05-10T20:31:31;6.00;;;1.10;;
1296;SDS011;641;48.492;9.184;2023-05-10T20:33:57;7.33;;;1.23;;
1296;SDS011;641;48.492;9.184;2023-05-10T20:36:23;8.63;;;1.13;;
1296;SDS011;641;48.492;9.184;2023-05-10T20:38:49;7.17;;;1.20;;
1296;SDS011;641;48.492;9.184;2023-05-10T20:41:15;6.63;;;1.00;;
1296;SDS011;641;48.492;9.184;2023-05-10T20:43:41;5.60;;;0.73;;
1296;SDS011;641;48.492;9.184;2023-05-10T20:46:07;6.40;;;1.10;;
1296;SDS011;641;48.492;9.184;2023-05-10T20:48:33;6.23;;;1.03;;
1296;SDS011;641;48.492;9.184;2023-05-10T21:13:03;7.53;;;0.70;;
1296;SDS011;641;48.492;9.184;2023-05-10T21:22:04;8.93;;;1.10;;
1296;SDS011;641;48.492;9.184;2023-05-10T21:34:26;6.23;;;0.70;;
1296;SDS011;641;48.492;9.184;2023-05-10T21:40:14;5.53;;;0.50;;
1296;SDS011;641;48.492;9.184;2023-05-10T21:46:05;7.10;;;0.73;;
1296;SDS011;641;48.492;9.184;2023-05-10T21:48:36;6.10;;;0.63;;
1296;SDS011;641;48.492;9.184;2023-05-10T22:06:51;5.90;;;0.80;;
1296;SDS011;641;48.492;9.184;2023-05-10T22:18:39;7.07;;;1.10;;
1296;SDS011;641;48.492;9.184;2023-05-10T22:24:35;6.10;;;0.70;;
1296;SDS011;641;48.492;9.184;2023-05-10T22:42:51;6.70;;;0.77;;
1296;SDS011;641;48.492;9.184;2023-05-10T22:51:46;8.50;;;0.83;;
1296;SDS011;641;48.492;9.184;2023-05-10T22:58:05;6.00;;;0.73;;
1296;SDS011;641;48.492;9.184;2023-05-10T23:09:48;8.30;;;1.23;;
1296;SDS011;641;48.492;9.184;2023-05-10T23:12:14;6.23;;;1.00;;
1296;SDS011;641;48.492;9.184;2023-05-10T23:14:42;5.73;;;0.90;;
1296;SDS011;641;48.492;9.184;2023-05-10T23:17:10;8.43;;;1.20;;
1296;SDS011;641;48.492;9.184;2023-05-10T23:19:36;7.43;;;0.90;;
1296;SDS011;641;48.492;9.184;2023-05-10T23:22:02;5.67;;;0.80;;
1296;SDS011;641;48.492;9.184;2023-05-10T23:24:28;9.10;;;1.17;;
1296;SDS011;641;48.492;9.184;2023-05-10T23:26:54;6.50;;;1.00;;
1296;SDS011;641;48.492;9.184;2023-05-10T23:29:20;8.93;;;1.00;;
1296;SDS011;641;48.492;9.184;2023-05-10T23:31:48;6.80;;;0.90;;
1296;SDS011;641;48.492;9.184;2023-05-10T23:34:14;7.03;;;0.90;;
1296;SDS011;641;48.492;9.184;2023-05-10T23:36:41;5.90;;;0.70;;
1296;SDS011;641;48.492;9.184;2023-05-10T23:39:07;6.77;;;1.10;;
1296;SDS011;641;48.492;9.184;2023-05-10T23:41:33;6.30;;;0.90;;
1296;SDS011;641;48.492;9.184;2023-05-10T23:44:00;5.87;;;0.80;;
1296;SDS011;641;48.492;9.184;2023-05-10T23:46:29;5.80;;;0.70;;
1296;SDS011;641;48.492;9.184;2023-05-10T23:48:55;6.50;;;1.03;;
1296;SDS011;641;48.492;9.184;2023-05-10T23:51:21;5.80;;;0.80;;
1296;SDS011;641;48.492;9.184;2023-05-10T23:53:47;6.20;;;0.67;;
1296;SDS011;641;48.492;9.184;2023-05-10T23:56:13;6.30;;;1.07;;
1296;SDS011;641;48.492;9.184;2023-05-10T23:58:39;6.97;;;0.90;;
